sensor_id;sensor_type;location;lat;lon;timestamp;P1;durP1;ratioP1;P2;durP2;ratioP2
81353;SDS011;70810;52.038;8.524;2024-01-11T00:02:00;77.05;;;32.28;;
81353;SDS011;70810;52.038;8.524;2024-01-11T00:04:26;89.20;;;32.08;;
81353;SDS011;70810;52.038;8.524;2024-01-11T00:06:53;69.53;;;29.67;;
81353;SDS011;70810;52.038;8.524;2024-01-11T00:09:20;81.80;;;31.05;;
81353;SDS011;70810;52.038;8.524;2024-01-11T00:11:46;74.03;;;30.15;;
81353;SDS011;70810;52.038;8.524;2024-01-11T00:14:15;81.70;;;32.30;;
81353;SDS011;70810;52.038;8.524;2024-01-11T00:16:42;81.65;;;30.95;;
81353;SDS011;70810;52.038;8.524;2024-01-11T00:19:08;76.18;;;31.83;;
81353;SDS011;70810;52.038;8.524;2024-01-11T00:21:35;72.60;;;30.85;;
81353;SDS011;70810;52.038;8.524;2024-01-11T00:24:02;69.47;;;31.27;;
81353;SDS011;70810;52.038;8.524;2024-01-11T00:26:29;65.80;;;30.02;;
81353;SDS011;70810;52.038;8.524;2024-01-11T00:28:56;80.55;;;29.20;;
81353;SDS011;70810;52.038;8.524;2024-01-11T00:31:24;70.20;;;29.20;;
81353;SDS011;70810;52.038;8.524;2024-01-11T00:33:51;70.90;;;28.90;;
81353;SDS011;70810;52.038;8.524;2024-01-11T00:36:18;77.65;;;30.42;;
81353;SDS011;70810;52.038;8.524;2024-01-11T00:38:45;60.38;;;28.05;;
81353;SDS011;70810;52.038;8.524;2024-01-11T00:41:12;58.08;;;25.30;;
81353;SDS011;70810;52.038;8.524;2024-01-11T00:43:38;79.57;;;30.42;;
81353;SDS011;70810;52.038;8.524;2024-01-11T00:46:05;75.50;;;31.50;;
81353;SDS011;70810;52.038;8.524;2024-01-11T00:48:34;71.10;;;29.77;;
81353;SDS011;70810;52.038;8.524;2024-01-11T00:51:00;83.13;;;29.45;;
81353;SDS011;70810;52.038;8.524;2024-01-11T00:53:27;67.78;;;30.98;;
81353;SDS011;70810;52.038;8.524;2024-01-11T00:55:56;82.43;;;32.35;;
81353;SDS011;70810;52.038;8.524;2024-01-11T00:58:22;66.97;;;28.27;;
81353;SDS011;70810;52.038;8.524;2024-01-11T01:00:49;60.75;;;28.48;;
81353;SDS011;70810;52.038;8.524;2024-01-11T01:03:17;68.90;;;30.00;;
81353;SDS011;70810;52.038;8.524;2024-01-11T01:05:46;66.85;;;29.95;;
81353;SDS011;70810;52.038;8.524;2024-01-11T01:08:13;58.63;;;28.05;;
81353;SDS011;70810;52.038;8.524;2024-01-11T01:10:40;80.72;;;30.95;;
81353;SDS011;70810;52.038;8.524;2024-01-11T01:13:07;68.43;;;28.65;;
81353;SDS011;70810;52.038;8.524;2024-01-11T01:15:34;77.18;;;31.83;;
81353;SDS011;70810;52.038;8.524;2024-01-11T01:18:01;80.53;;;31.63;;
81353;SDS011;70810;52.038;8.524;2024-01-11T01:20:31;76.85;;;29.75;;
81353;SDS011;70810;52.038;8.524;2024-01-11T01:22:59;81.97;;;32.33;;
81353;SDS011;70810;52.038;8.524;2024-01-11T01:25:27;84.55;;;30.63;;
81353;SDS011;70810;52.038;8.524;2024-01-11T01:27:53;83.78;;;31.02;;
81353;SDS011;70810;52.038;8.524;2024-01-11T01:30:21;75.28;;;30.73;;
81353;SDS011;70810;52.038;8.524;2024-01-11T01:32:48;82.55;;;31.13;;
81353;SDS011;70810;52.038;8.524;2024-01-11T01:35:15;72.13;;;29.73;;
81353;SDS011;70810;52.038;8.524;2024-01-11T01:37:42;76.05;;;31.25;;
81353;SDS011;70810;52.038;8.524;2024-01-11T01:40:10;73.63;;;28.90;;
81353;SDS011;70810;52.038;8.524;2024-01-11T01:42:40;69.75;;;29.38;;
81353;SDS011;70810;52.038;8.524;2024-01-11T01:45:08;80.03;;;30.85;;
81353;SDS011;70810;52.038;8.524;2024-01-11T01:47:35;68.47;;;28.70;;
81353;SDS011;70810;52.038;8.524;2024-01-11T01:50:03;77.00;;;29.77;;
81353;SDS011;70810;52.038;8.524;2024-01-11T01:52:31;70.82;;;29.60;;
81353;SDS011;70810;52.038;8.524;2024-01-11T01:54:59;62.70;;;28.50;;
81353;SDS011;70810;52.038;8.524;2024-01-11T01:57:29;65.57;;;26.60;;
81353;SDS011;70810;52.038;8.524;2024-01-11T01:59:59;65.78;;;27.02;;
81353;SDS011;70810;52.038;8.524;2024-01-11T02:02:27;67.72;;;29.25;;
81353;SDS011;70810;52.038;8.524;2024-01-11T02:04:56;74.90;;;29.85;;
81353;SDS011;70810;52.038;8.524;2024-01-11T02:07:23;79.20;;;29.40;;
81353;SDS011;70810;52.038;8.524;2024-01-11T02:09:50;78.63;;;30.77;;
81353;SDS011;70810;52.038;8.524;2024-01-11T02:12:18;77.00;;;29.55;;
81353;SDS011;70810;52.038;8.524;2024-01-11T02:14:46;73.50;;;26.48;;
81353;SDS011;70810;52.038;8.524;2024-01-11T02:17:13;77.75;;;27.83;;
81353;SDS011;70810;52.038;8.524;2024-01-11T02:19:40;68.47;;;28.80;;
81353;SDS011;70810;52.038;8.524;2024-01-11T02:22:08;67.43;;;27.02;;
81353;SDS011;70810;52.038;8.524;2024-01-11T02:24:43;62.80;;;29.08;;
81353;SDS011;70810;52.038;8.524;2024-01-11T02:27:09;73.35;;;32.60;;
81353;SDS011;70810;52.038;8.524;2024-01-11T02:29:36;69.75;;;27.98;;
81353;SDS011;70810;52.038;8.524;2024-01-11T02:32:03;65.55;;;29.25;;
81353;SDS011;70810;52.038;8.524;2024-01-11T02:34:31;66.72;;;26.23;;
81353;SDS011;70810;52.038;8.524;2024-01-11T02:36:59;68.70;;;27.50;;
81353;SDS011;70810;52.038;8.524;2024-01-11T02:39:26;69.82;;;26.13;;
81353;SDS011;70810;52.038;8.524;2024-01-11T02:41:56;67.45;;;26.85;;
81353;SDS011;70810;52.038;8.524;2024-01-11T02:44:23;89.10;;;30.20;;
81353;SDS011;70810;52.038;8.524;2024-01-11T02:46:50;74.38;;;27.95;;
81353;SDS011;70810;52.038;8.524;2024-01-11T02:49:17;68.80;;;30.77;;
81353;SDS011;70810;52.038;8.524;2024-01-11T02:51:43;77.05;;;30.40;;
81353;SDS011;70810;52.038;8.524;2024-01-11T02:54:11;73.43;;;29.25;;
81353;SDS011;70810;52.038;8.524;2024-01-11T02:56:38;65.50;;;27.42;;
81353;SDS011;70810;52.038;8.524;2024-01-11T02:59:06;79.47;;;27.52;;
81353;SDS011;70810;52.038;8.524;2024-01-11T03:01:33;58.92;;;25.98;;
81353;SDS011;70810;52.038;8.524;2024-01-11T03:03:59;75.32;;;26.45;;
81353;SDS011;70810;52.038;8.524;2024-01-11T03:06:26;65.75;;;28.63;;
81353;SDS011;70810;52.038;8.524;2024-01-11T03:08:53;65.75;;;28.60;;
81353;SDS011;70810;52.038;8.524;2024-01-11T03:11:20;79.78;;;28.13;;
81353;SDS011;70810;52.038;8.524;2024-01-11T03:13:46;62.58;;;28.40;;
81353;SDS011;70810;52.038;8.524;2024-01-11T03:16:15;72.85;;;27.45;;
81353;SDS011;70810;52.038;8.524;2024-01-11T03:18:41;57.67;;;26.25;;
81353;SDS011;70810;52.038;8.524;2024-01-11T03:21:08;68.57;;;26.80;;
81353;SDS011;70810;52.038;8.524;2024-01-11T03:23:35;68.18;;;26.63;;
81353;SDS011;70810;52.038;8.524;2024-01-11T03:26:02;75.63;;;29.65;;
81353;SDS011;70810;52.038;8.524;2024-01-11T03:28:29;75.00;;;26.65;;
81353;SDS011;70810;52.038;8.524;2024-01-11T03:30:56;58.97;;;26.23;;
81353;SDS011;70810;52.038;8.524;2024-01-11T03:33:24;68.93;;;27.90;;
81353;SDS011;70810;52.038;8.524;2024-01-11T03:35:51;61.15;;;26.52;;
81353;SDS011;70810;52.038;8.524;2024-01-11T03:38:18;69.25;;;26.38;;
81353;SDS011;70810;52.038;8.524;2024-01-11T03:40:45;69.75;;;26.33;;
81353;SDS011;70810;52.038;8.524;2024-01-11T03:43:12;73.20;;;29.05;;
81353;SDS011;70810;52.038;8.524;2024-01-11T03:45:38;72.15;;;26.92;;
81353;SDS011;70810;52.038;8.524;2024-01-11T03:48:05;65.70;;;25.77;;
81353;SDS011;70810;52.038;8.524;2024-01-11T03:50:34;55.17;;;26.52;;
81353;SDS011;70810;52.038;8.524;2024-01-11T03:53:00;71.68;;;27.75;;
81353;SDS011;70810;52.038;8.524;2024-01-11T03:55:28;73.60;;;25.08;;
81353;SDS011;70810;52.038;8.524;2024-01-11T03:57:54;61.90;;;25.58;;
81353;SDS011;70810;52.038;8.524;2024-01-11T04:00:21;88.82;;;27.33;;
81353;SDS011;70810;52.038;8.524;2024-01-11T04:02:48;79.03;;;26.77;;
81353;SDS011;70810;52.038;8.524;2024-01-11T04:05:15;59.97;;;24.70;;
81353;SDS011;70810;52.038;8.524;2024-01-11T04:07:43;80.07;;;29.85;;
81353;SDS011;70810;52.038;8.524;2024-01-11T04:10:10;61.10;;;24.30;;
81353;SDS011;70810;52.038;8.524;2024-01-11T04:12:37;75.55;;;29.40;;
81353;SDS011;70810;52.038;8.524;2024-01-11T04:15:04;67.43;;;26.52;;
81353;SDS011;70810;52.038;8.524;2024-01-11T04:17:31;54.67;;;27.20;;
81353;SDS011;70810;52.038;8.524;2024-01-11T04:19:58;72.22;;;28.00;;
81353;SDS011;70810;52.038;8.524;2024-01-11T04:22:24;67.57;;;25.67;;
81353;SDS011;70810;52.038;8.524;2024-01-11T04:24:52;70.22;;;26.92;;
81353;SDS011;70810;52.038;8.524;2024-01-11T04:27:20;60.20;;;25.05;;
81353;SDS011;70810;52.038;8.524;2024-01-11T04:29:46;63.80;;;25.02;;
81353;SDS011;70810;52.038;8.524;2024-01-11T04:32:13;69.45;;;25.40;;
81353;SDS011;70810;52.038;8.524;2024-01-11T04:34:41;72.85;;;28.05;;
81353;SDS011;70810;52.038;8.524;2024-01-11T04:37:07;61.00;;;23.85;;
81353;SDS011;70810;52.038;8.524;2024-01-11T04:39:34;66.65;;;24.80;;
81353;SDS011;70810;52.038;8.524;2024-01-11T04:42:03;56.92;;;24.83;;
81353;SDS011;70810;52.038;8.524;2024-01-11T04:44:29;67.57;;;25.90;;
81353;SDS011;70810;52.038;8.524;2024-01-11T04:46:56;68.03;;;25.75;;
81353;SDS011;70810;52.038;8.524;2024-01-11T04:49:23;68.93;;;26.38;;
81353;SDS011;70810;52.038;8.524;2024-01-11T04:51:50;66.90;;;25.60;;
81353;SDS011;70810;52.038;8.524;2024-01-11T04:54:16;57.50;;;25.25;;
81353;SDS011;70810;52.038;8.524;2024-01-11T04:56:43;60.45;;;26.25;;
81353;SDS011;70810;52.038;8.524;2024-01-11T04:59:11;66.75;;;27.58;;
81353;SDS011;70810;52.038;8.524;2024-01-11T05:01:38;65.60;;;25.48;;
81353;SDS011;70810;52.038;8.524;2024-01-11T05:04:06;71.70;;;26.30;;
81353;SDS011;70810;52.038;8.524;2024-01-11T05:06:33;69.00;;;26.90;;
81353;SDS011;70810;52.038;8.524;2024-01-11T05:08:59;57.22;;;25.33;;
81353;SDS011;70810;52.038;8.524;2024-01-11T05:11:27;57.75;;;23.65;;
81353;SDS011;70810;52.038;8.524;2024-01-11T05:13:54;65.18;;;24.42;;
81353;SDS011;70810;52.038;8.524;2024-01-11T05:16:22;58.33;;;23.07;;
81353;SDS011;70810;52.038;8.524;2024-01-11T05:18:50;51.55;;;23.70;;
81353;SDS011;70810;52.038;8.524;2024-01-11T05:21:20;53.72;;;23.40;;
81353;SDS011;70810;52.038;8.524;2024-01-11T05:23:47;80.95;;;27.77;;
81353;SDS011;70810;52.038;8.524;2024-01-11T05:26:14;89.30;;;30.67;;
81353;SDS011;70810;52.038;8.524;2024-01-11T05:28:42;112.55;;;42.63;;
81353;SDS011;70810;52.038;8.524;2024-01-11T05:31:09;85.30;;;35.22;;
81353;SDS011;70810;52.038;8.524;2024-01-11T05:33:38;87.95;;;38.60;;
81353;SDS011;70810;52.038;8.524;2024-01-11T05:36:05;89.78;;;32.00;;
81353;SDS011;70810;52.038;8.524;2024-01-11T05:38:33;64.35;;;28.15;;
81353;SDS011;70810;52.038;8.524;2024-01-11T05:41:00;75.03;;;28.58;;
81353;SDS011;70810;52.038;8.524;2024-01-11T05:43:27;72.53;;;28.35;;
81353;SDS011;70810;52.038;8.524;2024-01-11T05:45:54;65.32;;;26.48;;
81353;SDS011;70810;52.038;8.524;2024-01-11T05:48:20;67.80;;;25.35;;
81353;SDS011;70810;52.038;8.524;2024-01-11T05:50:49;53.75;;;24.17;;
81353;SDS011;70810;52.038;8.524;2024-01-11T05:53:15;65.80;;;27.35;;
81353;SDS011;70810;52.038;8.524;2024-01-11T05:55:45;68.43;;;24.85;;
81353;SDS011;70810;52.038;8.524;2024-01-11T05:58:12;64.03;;;26.45;;
81353;SDS011;70810;52.038;8.524;2024-01-11T06:00:40;68.47;;;29.02;;
81353;SDS011;70810;52.038;8.524;2024-01-11T06:03:11;66.97;;;25.10;;
81353;SDS011;70810;52.038;8.524;2024-01-11T06:05:38;52.65;;;24.63;;
81353;SDS011;70810;52.038;8.524;2024-01-11T06:08:07;50.80;;;25.08;;
81353;SDS011;70810;52.038;8.524;2024-01-11T06:10:33;70.60;;;25.95;;
81353;SDS011;70810;52.038;8.524;2024-01-11T06:13:00;64.20;;;28.10;;
81353;SDS011;70810;52.038;8.524;2024-01-11T06:15:27;64.32;;;26.55;;
81353;SDS011;70810;52.038;8.524;2024-01-11T06:17:55;68.15;;;30.08;;
81353;SDS011;70810;52.038;8.524;2024-01-11T06:20:24;81.10;;;28.75;;
81353;SDS011;70810;52.038;8.524;2024-01-11T06:26:26;65.43;;;26.60;;
81353;SDS011;70810;52.038;8.524;2024-01-11T06:28:55;81.20;;;29.27;;
81353;SDS011;70810;52.038;8.524;2024-01-11T06:31:22;71.20;;;27.85;;
81353;SDS011;70810;52.038;8.524;2024-01-11T06:33:49;69.65;;;27.27;;
81353;SDS011;70810;52.038;8.524;2024-01-11T06:36:16;81.38;;;27.25;;
81353;SDS011;70810;52.038;8.524;2024-01-11T06:38:45;75.57;;;28.35;;
81353;SDS011;70810;52.038;8.524;2024-01-11T06:41:39;75.93;;;29.25;;
81353;SDS011;70810;52.038;8.524;2024-01-11T06:44:09;57.70;;;26.83;;
81353;SDS011;70810;52.038;8.524;2024-01-11T06:46:39;65.00;;;28.45;;
81353;SDS011;70810;52.038;8.524;2024-01-11T06:49:28;62.95;;;25.45;;
81353;SDS011;70810;52.038;8.524;2024-01-11T06:52:40;94.55;;;28.88;;
81353;SDS011;70810;52.038;8.524;2024-01-11T06:55:08;72.60;;;27.70;;
81353;SDS011;70810;52.038;8.524;2024-01-11T06:57:37;67.35;;;26.90;;
81353;SDS011;70810;52.038;8.524;2024-01-11T07:00:04;74.68;;;27.90;;
81353;SDS011;70810;52.038;8.524;2024-01-11T07:02:32;77.13;;;29.88;;
81353;SDS011;70810;52.038;8.524;2024-01-11T07:05:02;80.10;;;27.83;;
81353;SDS011;70810;52.038;8.524;2024-01-11T07:08:01;64.97;;;27.25;;
81353;SDS011;70810;52.038;8.524;2024-01-11T07:11:00;78.57;;;29.17;;
81353;SDS011;70810;52.038;8.524;2024-01-11T07:13:29;95.00;;;33.83;;
81353;SDS011;70810;52.038;8.524;2024-01-11T07:15:56;80.03;;;29.08;;
81353;SDS011;70810;52.038;8.524;2024-01-11T07:18:23;82.72;;;27.63;;
81353;SDS011;70810;52.038;8.524;2024-01-11T07:20:50;72.07;;;28.80;;
81353;SDS011;70810;52.038;8.524;2024-01-11T07:23:17;68.82;;;25.92;;
81353;SDS011;70810;52.038;8.524;2024-01-11T07:25:44;59.13;;;27.63;;
81353;SDS011;70810;52.038;8.524;2024-01-11T07:28:11;64.63;;;24.85;;
81353;SDS011;70810;52.038;8.524;2024-01-11T07:30:46;65.03;;;25.75;;
81353;SDS011;70810;52.038;8.524;2024-01-11T07:33:13;82.35;;;29.40;;
81353;SDS011;70810;52.038;8.524;2024-01-11T07:35:40;75.28;;;31.13;;
81353;SDS011;70810;52.038;8.524;2024-01-11T07:38:08;73.30;;;29.33;;
81353;SDS011;70810;52.038;8.524;2024-01-11T07:40:34;72.82;;;27.67;;
81353;SDS011;70810;52.038;8.524;2024-01-11T07:43:03;70.35;;;26.70;;
81353;SDS011;70810;52.038;8.524;2024-01-11T07:45:47;80.07;;;26.67;;
81353;SDS011;70810;52.038;8.524;2024-01-11T07:48:17;57.97;;;25.67;;
81353;SDS011;70810;52.038;8.524;2024-01-11T07:50:44;66.95;;;26.90;;
81353;SDS011;70810;52.038;8.524;2024-01-11T07:53:11;75.20;;;26.60;;
81353;SDS011;70810;52.038;8.524;2024-01-11T07:55:38;75.68;;;28.40;;
81353;SDS011;70810;52.038;8.524;2024-01-11T07:58:05;73.82;;;28.40;;
81353;SDS011;70810;52.038;8.524;2024-01-11T08:00:32;73.75;;;29.13;;
81353;SDS011;70810;52.038;8.524;2024-01-11T08:03:02;68.47;;;27.58;;
81353;SDS011;70810;52.038;8.524;2024-01-11T08:05:31;66.35;;;27.38;;
81353;SDS011;70810;52.038;8.524;2024-01-11T08:07:57;70.32;;;27.55;;
81353;SDS011;70810;52.038;8.524;2024-01-11T08:10:31;74.35;;;29.33;;
81353;SDS011;70810;52.038;8.524;2024-01-11T08:13:00;65.40;;;28.08;;
81353;SDS011;70810;52.038;8.524;2024-01-11T08:15:28;58.65;;;24.27;;
81353;SDS011;70810;52.038;8.524;2024-01-11T08:17:57;71.45;;;26.20;;
81353;SDS011;70810;52.038;8.524;2024-01-11T08:20:37;61.38;;;25.90;;
81353;SDS011;70810;52.038;8.524;2024-01-11T08:23:05;65.72;;;24.65;;
81353;SDS011;70810;52.038;8.524;2024-01-11T08:25:32;72.15;;;28.92;;
81353;SDS011;70810;52.038;8.524;2024-01-11T08:27:59;60.35;;;27.60;;
81353;SDS011;70810;52.038;8.524;2024-01-11T08:30:30;69.20;;;26.90;;
81353;SDS011;70810;52.038;8.524;2024-01-11T08:32:57;68.00;;;25.52;;
81353;SDS011;70810;52.038;8.524;2024-01-11T08:35:26;67.40;;;25.17;;
81353;SDS011;70810;52.038;8.524;2024-01-11T08:37:52;78.47;;;25.65;;
81353;SDS011;70810;52.038;8.524;2024-01-11T08:40:22;60.00;;;25.65;;
81353;SDS011;70810;52.038;8.524;2024-01-11T08:42:49;60.88;;;26.15;;
81353;SDS011;70810;52.038;8.524;2024-01-11T08:45:18;69.28;;;26.33;;
81353;SDS011;70810;52.038;8.524;2024-01-11T08:47:56;56.97;;;25.75;;
81353;SDS011;70810;52.038;8.524;2024-01-11T08:53:19;72.20;;;25.55;;
81353;SDS011;70810;52.038;8.524;2024-01-11T08:55:48;71.10;;;25.80;;
81353;SDS011;70810;52.038;8.524;2024-01-11T08:58:18;76.85;;;29.67;;
81353;SDS011;70810;52.038;8.524;2024-01-11T09:00:49;58.67;;;24.60;;
81353;SDS011;70810;52.038;8.524;2024-01-11T09:03:15;57.47;;;22.83;;
81353;SDS011;70810;52.038;8.524;2024-01-11T09:05:42;57.00;;;25.30;;
81353;SDS011;70810;52.038;8.524;2024-01-11T09:08:13;51.13;;;22.55;;
81353;SDS011;70810;52.038;8.524;2024-01-11T09:10:40;59.58;;;23.88;;
81353;SDS011;70810;52.038;8.524;2024-01-11T09:13:09;75.18;;;29.13;;
81353;SDS011;70810;52.038;8.524;2024-01-11T09:15:36;63.55;;;25.50;;
81353;SDS011;70810;52.038;8.524;2024-01-11T09:18:11;66.47;;;25.80;;
81353;SDS011;70810;52.038;8.524;2024-01-11T09:20:38;50.15;;;22.52;;
81353;SDS011;70810;52.038;8.524;2024-01-11T09:23:06;57.72;;;24.25;;
81353;SDS011;70810;52.038;8.524;2024-01-11T09:25:44;57.33;;;25.40;;
81353;SDS011;70810;52.038;8.524;2024-01-11T09:28:13;64.68;;;27.50;;
81353;SDS011;70810;52.038;8.524;2024-01-11T09:30:41;60.55;;;23.05;;
81353;SDS011;70810;52.038;8.524;2024-01-11T09:33:12;65.53;;;25.95;;
81353;SDS011;70810;52.038;8.524;2024-01-11T09:35:41;62.30;;;25.85;;
81353;SDS011;70810;52.038;8.524;2024-01-11T09:38:08;66.32;;;24.55;;
81353;SDS011;70810;52.038;8.524;2024-01-11T09:40:38;58.80;;;24.10;;
81353;SDS011;70810;52.038;8.524;2024-01-11T09:43:05;63.67;;;25.02;;
81353;SDS011;70810;52.038;8.524;2024-01-11T09:45:35;58.25;;;26.15;;
81353;SDS011;70810;52.038;8.524;2024-01-11T09:48:04;54.47;;;23.48;;
81353;SDS011;70810;52.038;8.524;2024-01-11T09:50:33;56.70;;;23.55;;
81353;SDS011;70810;52.038;8.524;2024-01-11T09:52:59;49.75;;;25.42;;
81353;SDS011;70810;52.038;8.524;2024-01-11T09:55:32;70.78;;;24.63;;
81353;SDS011;70810;52.038;8.524;2024-01-11T10:01:40;54.42;;;24.27;;
81353;SDS011;70810;52.038;8.524;2024-01-11T10:04:07;60.50;;;24.48;;
81353;SDS011;70810;52.038;8.524;2024-01-11T10:06:34;59.25;;;24.23;;
81353;SDS011;70810;52.038;8.524;2024-01-11T10:09:04;54.20;;;24.42;;
81353;SDS011;70810;52.038;8.524;2024-01-11T10:11:32;59.28;;;25.30;;
81353;SDS011;70810;52.038;8.524;2024-01-11T10:14:03;54.63;;;25.50;;
81353;SDS011;70810;52.038;8.524;2024-01-11T10:16:37;48.85;;;25.83;;
81353;SDS011;70810;52.038;8.524;2024-01-11T10:19:16;60.60;;;25.77;;
81353;SDS011;70810;52.038;8.524;2024-01-11T10:22:36;54.65;;;24.00;;
81353;SDS011;70810;52.038;8.524;2024-01-11T10:25:28;55.25;;;25.13;;
81353;SDS011;70810;52.038;8.524;2024-01-11T10:27:55;58.85;;;27.48;;
81353;SDS011;70810;52.038;8.524;2024-01-11T10:30:22;65.68;;;27.55;;
81353;SDS011;70810;52.038;8.524;2024-01-11T10:32:52;60.10;;;27.00;;
81353;SDS011;70810;52.038;8.524;2024-01-11T10:35:19;61.95;;;27.73;;
81353;SDS011;70810;52.038;8.524;2024-01-11T10:37:46;67.03;;;25.98;;
81353;SDS011;70810;52.038;8.524;2024-01-11T10:40:21;71.28;;;26.73;;
81353;SDS011;70810;52.038;8.524;2024-01-11T10:42:52;68.30;;;27.13;;
81353;SDS011;70810;52.038;8.524;2024-01-11T10:45:19;51.90;;;24.90;;
81353;SDS011;70810;52.038;8.524;2024-01-11T10:47:49;51.28;;;24.95;;
81353;SDS011;70810;52.038;8.524;2024-01-11T10:50:23;61.83;;;25.80;;
81353;SDS011;70810;52.038;8.524;2024-01-11T10:52:58;52.63;;;25.25;;
81353;SDS011;70810;52.038;8.524;2024-01-11T10:55:32;65.32;;;25.05;;
81353;SDS011;70810;52.038;8.524;2024-01-11T10:58:35;60.78;;;23.45;;
81353;SDS011;70810;52.038;8.524;2024-01-11T11:01:24;43.63;;;21.95;;
81353;SDS011;70810;52.038;8.524;2024-01-11T11:03:57;41.80;;;21.45;;
81353;SDS011;70810;52.038;8.524;2024-01-11T11:06:26;58.40;;;24.77;;
81353;SDS011;70810;52.038;8.524;2024-01-11T11:08:54;54.50;;;22.83;;
81353;SDS011;70810;52.038;8.524;2024-01-11T11:11:23;56.53;;;22.50;;
81353;SDS011;70810;52.038;8.524;2024-01-11T11:13:50;50.83;;;22.27;;
81353;SDS011;70810;52.038;8.524;2024-01-11T11:16:18;48.58;;;21.33;;
81353;SDS011;70810;52.038;8.524;2024-01-11T11:18:45;40.85;;;20.08;;
81353;SDS011;70810;52.038;8.524;2024-01-11T11:21:13;54.33;;;21.60;;
81353;SDS011;70810;52.038;8.524;2024-01-11T11:23:42;48.80;;;19.67;;
81353;SDS011;70810;52.038;8.524;2024-01-11T11:26:14;48.30;;;19.80;;
81353;SDS011;70810;52.038;8.524;2024-01-11T11:28:42;47.97;;;19.98;;
81353;SDS011;70810;52.038;8.524;2024-01-11T11:31:11;41.55;;;18.42;;
81353;SDS011;70810;52.038;8.524;2024-01-11T11:33:42;45.72;;;20.38;;
81353;SDS011;70810;52.038;8.524;2024-01-11T11:39:22;48.50;;;21.27;;
81353;SDS011;70810;52.038;8.524;2024-01-11T11:41:53;47.95;;;19.17;;
81353;SDS011;70810;52.038;8.524;2024-01-11T11:44:24;46.72;;;19.77;;
81353;SDS011;70810;52.038;8.524;2024-01-11T11:46:55;44.80;;;19.75;;
81353;SDS011;70810;52.038;8.524;2024-01-11T11:49:57;43.47;;;19.38;;
81353;SDS011;70810;52.038;8.524;2024-01-11T11:52:27;48.58;;;21.25;;
81353;SDS011;70810;52.038;8.524;2024-01-11T11:54:56;64.38;;;24.00;;
81353;SDS011;70810;52.038;8.524;2024-01-11T11:57:27;58.83;;;19.75;;
81353;SDS011;70810;52.038;8.524;2024-01-11T11:59:56;53.20;;;22.25;;
81353;SDS011;70810;52.038;8.524;2024-01-11T12:02:25;59.53;;;23.80;;
81353;SDS011;70810;52.038;8.524;2024-01-11T12:04:52;72.65;;;26.50;;
81353;SDS011;70810;52.038;8.524;2024-01-11T12:07:19;53.47;;;24.45;;
81353;SDS011;70810;52.038;8.524;2024-01-11T12:09:49;48.88;;;21.38;;
81353;SDS011;70810;52.038;8.524;2024-01-11T12:12:17;53.97;;;24.05;;
81353;SDS011;70810;52.038;8.524;2024-01-11T12:14:46;51.22;;;22.48;;
81353;SDS011;70810;52.038;8.524;2024-01-11T12:17:20;66.82;;;25.48;;
81353;SDS011;70810;52.038;8.524;2024-01-11T12:20:05;47.50;;;23.20;;
81353;SDS011;70810;52.038;8.524;2024-01-11T12:22:34;54.10;;;23.40;;
81353;SDS011;70810;52.038;8.524;2024-01-11T12:25:05;56.05;;;21.52;;
81353;SDS011;70810;52.038;8.524;2024-01-11T12:27:33;50.05;;;21.67;;
81353;SDS011;70810;52.038;8.524;2024-01-11T12:30:02;53.88;;;22.23;;
81353;SDS011;70810;52.038;8.524;2024-01-11T12:32:55;46.60;;;21.10;;
81353;SDS011;70810;52.038;8.524;2024-01-11T12:35:41;63.90;;;22.67;;
81353;SDS011;70810;52.038;8.524;2024-01-11T12:38:11;45.88;;;20.00;;
81353;SDS011;70810;52.038;8.524;2024-01-11T12:43:52;41.70;;;19.83;;
81353;SDS011;70810;52.038;8.524;2024-01-11T12:46:20;65.45;;;22.67;;
81353;SDS011;70810;52.038;8.524;2024-01-11T12:48:49;50.15;;;20.02;;
81353;SDS011;70810;52.038;8.524;2024-01-11T12:51:20;58.17;;;23.10;;
81353;SDS011;70810;52.038;8.524;2024-01-11T12:53:54;50.35;;;20.95;;
81353;SDS011;70810;52.038;8.524;2024-01-11T12:56:26;59.10;;;22.80;;
81353;SDS011;70810;52.038;8.524;2024-01-11T12:59:08;51.75;;;22.80;;
81353;SDS011;70810;52.038;8.524;2024-01-11T13:01:52;56.10;;;21.85;;
81353;SDS011;70810;52.038;8.524;2024-01-11T13:04:21;54.28;;;20.13;;
81353;SDS011;70810;52.038;8.524;2024-01-11T13:06:48;58.35;;;21.02;;
81353;SDS011;70810;52.038;8.524;2024-01-11T13:09:25;48.80;;;18.63;;
81353;SDS011;70810;52.038;8.524;2024-01-11T13:11:54;54.65;;;21.35;;
81353;SDS011;70810;52.038;8.524;2024-01-11T13:14:20;50.88;;;20.33;;
81353;SDS011;70810;52.038;8.524;2024-01-11T13:16:48;46.17;;;18.52;;
81353;SDS011;70810;52.038;8.524;2024-01-11T13:19:14;38.88;;;17.60;;
81353;SDS011;70810;52.038;8.524;2024-01-11T13:21:41;44.35;;;17.98;;
81353;SDS011;70810;52.038;8.524;2024-01-11T13:24:08;40.08;;;17.85;;
81353;SDS011;70810;52.038;8.524;2024-01-11T13:26:38;40.78;;;16.60;;
81353;SDS011;70810;52.038;8.524;2024-01-11T13:29:12;42.50;;;18.48;;
81353;SDS011;70810;52.038;8.524;2024-01-11T13:31:39;38.17;;;16.55;;
81353;SDS011;70810;52.038;8.524;2024-01-11T13:34:06;36.05;;;14.77;;
81353;SDS011;70810;52.038;8.524;2024-01-11T13:36:33;33.78;;;14.77;;
81353;SDS011;70810;52.038;8.524;2024-01-11T13:39:05;38.58;;;15.80;;
81353;SDS011;70810;52.038;8.524;2024-01-11T13:41:37;36.60;;;14.45;;
81353;SDS011;70810;52.038;8.524;2024-01-11T13:44:09;34.70;;;14.05;;
81353;SDS011;70810;52.038;8.524;2024-01-11T13:46:47;29.33;;;13.25;;
81353;SDS011;70810;52.038;8.524;2024-01-11T13:49:48;30.88;;;13.25;;
81353;SDS011;70810;52.038;8.524;2024-01-11T13:52:47;49.17;;;20.48;;
81353;SDS011;70810;52.038;8.524;2024-01-11T13:55:15;38.80;;;17.30;;
81353;SDS011;70810;52.038;8.524;2024-01-11T13:57:46;43.85;;;17.38;;
81353;SDS011;70810;52.038;8.524;2024-01-11T14:00:21;39.10;;;19.40;;
81353;SDS011;70810;52.038;8.524;2024-01-11T14:02:48;31.15;;;12.32;;
81353;SDS011;70810;52.038;8.524;2024-01-11T14:05:15;30.67;;;13.77;;
81353;SDS011;70810;52.038;8.524;2024-01-11T14:07:43;27.35;;;13.70;;
81353;SDS011;70810;52.038;8.524;2024-01-11T14:10:12;34.35;;;15.38;;
81353;SDS011;70810;52.038;8.524;2024-01-11T14:12:41;30.48;;;14.25;;
81353;SDS011;70810;52.038;8.524;2024-01-11T14:15:09;28.50;;;12.57;;
81353;SDS011;70810;52.038;8.524;2024-01-11T14:17:41;26.90;;;12.77;;
81353;SDS011;70810;52.038;8.524;2024-01-11T14:20:09;25.20;;;12.57;;
81353;SDS011;70810;52.038;8.524;2024-01-11T14:22:40;34.72;;;15.60;;
81353;SDS011;70810;52.038;8.524;2024-01-11T14:25:07;28.63;;;12.88;;
81353;SDS011;70810;52.038;8.524;2024-01-11T14:27:36;27.83;;;13.25;;
81353;SDS011;70810;52.038;8.524;2024-01-11T14:30:03;29.92;;;14.55;;
81353;SDS011;70810;52.038;8.524;2024-01-11T14:32:33;39.25;;;18.73;;
81353;SDS011;70810;52.038;8.524;2024-01-11T14:35:10;43.60;;;26.20;;
81353;SDS011;70810;52.038;8.524;2024-01-11T14:37:38;53.53;;;23.85;;
81353;SDS011;70810;52.038;8.524;2024-01-11T14:40:10;44.45;;;19.52;;
81353;SDS011;70810;52.038;8.524;2024-01-11T14:42:40;30.70;;;15.57;;
81353;SDS011;70810;52.038;8.524;2024-01-11T14:45:11;36.45;;;15.27;;
81353;SDS011;70810;52.038;8.524;2024-01-11T14:47:41;43.53;;;19.48;;
81353;SDS011;70810;52.038;8.524;2024-01-11T14:52:59;38.33;;;15.15;;
81353;SDS011;70810;52.038;8.524;2024-01-11T14:55:28;26.88;;;13.55;;